sensor_id;sensor_type;location;lat;lon;timestamp;pressure;altitude;pressure_sealevel;temperature;humidity
27144;BME280;14672;50.250;8.312;2022-11-24T00:00:49;97906.06;;;8.98;68.99
27144;BME280;14672;50.250;8.312;2022-11-24T00:03:14;97908.28;;;9.03;69.20
27144;BME280;14672;50.250;8.312;2022-11-24T00:05:40;97902.59;;;9.03;70.27
27144;BME280;14672;50.250;8.312;2022-11-24T00:08:07;97906.69;;;9.20;70.91
27144;BME280;14672;50.250;8.312;2022-11-24T00:10:33;97909.66;;;9.17;70.16
27144;BME280;14672;50.250;8.312;2022-11-24T00:12:59;97907.13;;;9.37;70.85
27144;BME280;14672;50.250;8.312;2022-11-24T00:15:25;97906.19;;;9.49;72.11
27144;BME280;14672;50.250;8.312;2022-11-24T00:17:50;97910.09;;;9.52;71.36
27144;BME280;14672;50.250;8.312;2022-11-24T00:20:16;97913.25;;;9.54;71.67
27144;BME280;14672;50.250;8.312;2022-11-24T00:22:42;97905.06;;;9.56;71.19
27144;BME280;14672;50.250;8.312;2022-11-24T00:25:08;97909.63;;;9.62;70.69
27144;BME280;14672;50.250;8.312;2022-11-24T00:27:34;97914.03;;;9.63;70.17
27144;BME280;14672;50.250;8.312;2022-11-24T00:30:00;97911.34;;;9.60;70.54
27144;BME280;14672;50.250;8.312;2022-11-24T00:32:29;97910.41;;;9.63;70.27
27144;BME280;14672;50.250;8.312;2022-11-24T00:34:55;97913.56;;;9.65;69.84
27144;BME280;14672;50.250;8.312;2022-11-24T00:37:21;97910.59;;;9.59;69.96
27144;BME280;14672;50.250;8.312;2022-11-24T00:39:46;97924.28;;;9.61;69.95
27144;BME280;14672;50.250;8.312;2022-11-24T00:42:13;97928.34;;;9.60;69.34
27144;BME280;14672;50.250;8.312;2022-11-24T00:44:41;97929.47;;;9.53;69.22
27144;BME280;14672;50.250;8.312;2022-11-24T00:47:07;97937.19;;;9.43;69.14
27144;BME280;14672;50.250;8.312;2022-11-24T00:49:33;97936.28;;;9.47;69.20
27144;BME280;14672;50.250;8.312;2022-11-24T00:52:00;97934.69;;;9.46;68.74
27144;BME280;14672;50.250;8.312;2022-11-24T00:54:26;97947.31;;;9.35;68.30
27144;BME280;14672;50.250;8.312;2022-11-24T00:56:52;97941.94;;;9.37;68.02
27144;BME280;14672;50.250;8.312;2022-11-24T00:59:18;97950.13;;;9.44;70.17
27144;BME280;14672;50.250;8.312;2022-11-24T01:01:43;97950.63;;;9.43;69.17
27144;BME280;14672;50.250;8.312;2022-11-24T01:04:09;97952.97;;;9.44;69.14
27144;BME280;14672;50.250;8.312;2022-11-24T01:06:35;97958.31;;;9.42;70.02
27144;BME280;14672;50.250;8.312;2022-11-24T01:09:02;97956.25;;;9.52;71.04
27144;BME280;14672;50.250;8.312;2022-11-24T01:11:34;97961.75;;;9.56;69.51
27144;BME280;14672;50.250;8.312;2022-11-24T01:14:23;97970.75;;;9.45;69.72
27144;BME280;14672;50.250;8.312;2022-11-24T01:16:49;97965.72;;;9.40;68.55
27144;BME280;14672;50.250;8.312;2022-11-24T01:19:15;97981.47;;;9.41;68.90
27144;BME280;14672;50.250;8.312;2022-11-24T01:21:41;97984.16;;;9.35;68.75
27144;BME280;14672;50.250;8.312;2022-11-24T01:24:07;97983.03;;;9.42;69.08
27144;BME280;14672;50.250;8.312;2022-11-24T01:26:33;97992.97;;;9.47;69.29
27144;BME280;14672;50.250;8.312;2022-11-24T01:28:59;97988.22;;;9.53;69.85
27144;BME280;14672;50.250;8.312;2022-11-24T01:31:26;97980.84;;;9.46;69.37
27144;BME280;14672;50.250;8.312;2022-11-24T01:33:52;97976.41;;;9.36;68.84
27144;BME280;14672;50.250;8.312;2022-11-24T01:36:18;97976.13;;;9.34;69.40
27144;BME280;14672;50.250;8.312;2022-11-24T01:38:45;97975.94;;;9.28;69.07
27144;BME280;14672;50.250;8.312;2022-11-24T01:41:16;97983.53;;;9.31;69.72
27144;BME280;14672;50.250;8.312;2022-11-24T01:43:44;97989.03;;;9.35;69.71
27144;BME280;14672;50.250;8.312;2022-11-24T01:51:38;97992.94;;;9.28;69.58
27144;BME280;14672;50.250;8.312;2022-11-24T01:54:15;97993.44;;;9.27;69.64
27144;BME280;14672;50.250;8.312;2022-11-24T01:56:45;97997.06;;;9.27;69.42
27144;BME280;14672;50.250;8.312;2022-11-24T01:59:15;97995.31;;;9.30;69.60
27144;BME280;14672;50.250;8.312;2022-11-24T02:01:43;97995.81;;;9.37;70.31
27144;BME280;14672;50.250;8.312;2022-11-24T02:04:16;97996.09;;;9.49;70.41
27144;BME280;14672;50.250;8.312;2022-11-24T02:06:45;97982.88;;;9.55;70.98
27144;BME280;14672;50.250;8.312;2022-11-24T02:09:44;98003.19;;;9.53;71.61
27144;BME280;14672;50.250;8.312;2022-11-24T02:12:12;98001.63;;;9.61;71.81
27144;BME280;14672;50.250;8.312;2022-11-24T02:14:39;98008.09;;;9.62;71.95
27144;BME280;14672;50.250;8.312;2022-11-24T02:17:07;97997.22;;;9.69;71.91
27144;BME280;14672;50.250;8.312;2022-11-24T02:22:15;98008.38;;;9.82;72.44
27144;BME280;14672;50.250;8.312;2022-11-24T02:24:58;98009.19;;;9.64;73.49
27144;BME280;14672;50.250;8.312;2022-11-24T02:27:27;98006.63;;;9.84;73.01
27144;BME280;14672;50.250;8.312;2022-11-24T02:29:53;97997.81;;;9.82;72.66
27144;BME280;14672;50.250;8.312;2022-11-24T02:32:19;98007.44;;;9.85;73.10
27144;BME280;14672;50.250;8.312;2022-11-24T02:34:46;98007.88;;;9.93;72.78
27144;BME280;14672;50.250;8.312;2022-11-24T02:37:11;98007.88;;;9.93;72.88
27144;BME280;14672;50.250;8.312;2022-11-24T02:39:37;98000.34;;;9.89;73.28
27144;BME280;14672;50.250;8.312;2022-11-24T02:42:10;98012.47;;;9.99;72.65
27144;BME280;14672;50.250;8.312;2022-11-24T02:44:43;98000.63;;;10.01;72.79
27144;BME280;14672;50.250;8.312;2022-11-24T02:47:12;98018.41;;;10.10;71.98
27144;BME280;14672;50.250;8.312;2022-11-24T02:49:38;98016.38;;;10.02;72.26
27144;BME280;14672;50.250;8.312;2022-11-24T02:52:05;98003.91;;;10.08;72.43
27144;BME280;14672;50.250;8.312;2022-11-24T02:54:31;97999.50;;;10.16;71.47
27144;BME280;14672;50.250;8.312;2022-11-24T02:56:57;98012.72;;;10.19;71.27
27144;BME280;14672;50.250;8.312;2022-11-24T02:59:23;98021.56;;;10.12;71.59
27144;BME280;14672;50.250;8.312;2022-11-24T03:01:49;98020.94;;;10.17;71.02
27144;BME280;14672;50.250;8.312;2022-11-24T03:04:15;98025.03;;;10.07;71.20
27144;BME280;14672;50.250;8.312;2022-11-24T03:06:40;98024.88;;;10.11;70.91
27144;BME280;14672;50.250;8.312;2022-11-24T03:09:08;98027.88;;;10.07;70.34
27144;BME280;14672;50.250;8.312;2022-11-24T03:11:35;98037.66;;;10.06;70.10
27144;BME280;14672;50.250;8.312;2022-11-24T03:14:01;98038.00;;;9.99;70.42
27144;BME280;14672;50.250;8.312;2022-11-24T03:16:27;98033.88;;;10.00;70.51
27144;BME280;14672;50.250;8.312;2022-11-24T03:18:52;98036.72;;;10.00;70.68
27144;BME280;14672;50.250;8.312;2022-11-24T03:21:18;98032.91;;;10.03;71.22
27144;BME280;14672;50.250;8.312;2022-11-24T03:23:44;98037.66;;;10.06;71.57
27144;BME280;14672;50.250;8.312;2022-11-24T03:26:13;98021.88;;;10.05;71.52
27144;BME280;14672;50.250;8.312;2022-11-24T03:28:40;98017.97;;;10.03;71.24
27144;BME280;14672;50.250;8.312;2022-11-24T03:31:07;98033.06;;;10.09;70.88
27144;BME280;14672;50.250;8.312;2022-11-24T03:33:34;98017.31;;;10.08;70.91
27144;BME280;14672;50.250;8.312;2022-11-24T03:36:01;98019.34;;;10.07;70.78
27144;BME280;14672;50.250;8.312;2022-11-24T03:38:27;98019.97;;;10.11;70.59
27144;BME280;14672;50.250;8.312;2022-11-24T03:40:53;98011.94;;;10.10;70.73
27144;BME280;14672;50.250;8.312;2022-11-24T03:43:19;98022.34;;;10.13;70.50
27144;BME280;14672;50.250;8.312;2022-11-24T03:45:46;98011.16;;;10.09;70.08
27144;BME280;14672;50.250;8.312;2022-11-24T03:48:14;98026.78;;;10.05;70.62
27144;BME280;14672;50.250;8.312;2022-11-24T03:50:40;98030.69;;;10.07;71.28
27144;BME280;14672;50.250;8.312;2022-11-24T03:53:07;98043.16;;;10.10;70.51
27144;BME280;14672;50.250;8.312;2022-11-24T03:55:32;98039.88;;;10.02;71.13
27144;BME280;14672;50.250;8.312;2022-11-24T03:57:58;98041.75;;;10.14;70.65
27144;BME280;14672;50.250;8.312;2022-11-24T04:00:24;98045.56;;;10.02;71.47
27144;BME280;14672;50.250;8.312;2022-11-24T04:02:50;98049.00;;;10.15;71.10
27144;BME280;14672;50.250;8.312;2022-11-24T04:05:16;98040.34;;;10.19;71.09
27144;BME280;14672;50.250;8.312;2022-11-24T04:07:41;98045.06;;;10.22;70.82
27144;BME280;14672;50.250;8.312;2022-11-24T04:10:07;98043.81;;;10.23;70.76
27144;BME280;14672;50.250;8.312;2022-11-24T04:12:33;98053.59;;;10.22;71.25
27144;BME280;14672;50.250;8.312;2022-11-24T04:15:14;98053.41;;;10.25;71.10
27144;BME280;14672;50.250;8.312;2022-11-24T04:17:40;98055.16;;;10.23;71.78
27144;BME280;14672;50.250;8.312;2022-11-24T04:20:07;98065.38;;;10.29;72.00
27144;BME280;14672;50.250;8.312;2022-11-24T04:22:33;98058.47;;;10.30;71.96
27144;BME280;14672;50.250;8.312;2022-11-24T04:24:58;98059.38;;;10.36;72.40
27144;BME280;14672;50.250;8.312;2022-11-24T04:27:24;98060.00;;;10.41;72.08
27144;BME280;14672;50.250;8.312;2022-11-24T04:29:50;98060.94;;;10.47;72.17
27144;BME280;14672;50.250;8.312;2022-11-24T04:32:16;98069.75;;;10.49;72.26
27144;BME280;14672;50.250;8.312;2022-11-24T04:34:42;98058.22;;;10.52;72.14
27144;BME280;14672;50.250;8.312;2022-11-24T04:37:08;98063.44;;;10.54;72.20
27144;BME280;14672;50.250;8.312;2022-11-24T04:39:34;98057.13;;;10.59;72.15
27144;BME280;14672;50.250;8.312;2022-11-24T04:42:00;98054.88;;;10.63;71.84
27144;BME280;14672;50.250;8.312;2022-11-24T04:44:26;98073.00;;;10.65;72.51
27144;BME280;14672;50.250;8.312;2022-11-24T04:46:52;98074.09;;;10.68;72.26
27144;BME280;14672;50.250;8.312;2022-11-24T04:49:17;98075.38;;;10.67;72.61
27144;BME280;14672;50.250;8.312;2022-11-24T04:51:44;98082.31;;;10.66;72.17
27144;BME280;14672;50.250;8.312;2022-11-24T04:54:12;98079.78;;;10.68;72.42
27144;BME280;14672;50.250;8.312;2022-11-24T04:56:39;98086.22;;;10.77;72.24
27144;BME280;14672;50.250;8.312;2022-11-24T04:59:06;98085.72;;;10.79;72.18
27144;BME280;14672;50.250;8.312;2022-11-24T05:01:32;98086.69;;;10.76;72.80
27144;BME280;14672;50.250;8.312;2022-11-24T05:03:58;98099.19;;;10.78;72.24
27144;BME280;14672;50.250;8.312;2022-11-24T05:06:24;98090.66;;;10.78;72.66
27144;BME280;14672;50.250;8.312;2022-11-24T05:08:51;98083.22;;;10.81;72.31
27144;BME280;14672;50.250;8.312;2022-11-24T05:11:18;98087.31;;;10.80;72.25
27144;BME280;14672;50.250;8.312;2022-11-24T05:13:44;98093.94;;;10.86;72.30
27144;BME280;14672;50.250;8.312;2022-11-24T05:16:10;98096.16;;;10.82;72.74
27144;BME280;14672;50.250;8.312;2022-11-24T05:18:36;98107.38;;;10.76;73.00
27144;BME280;14672;50.250;8.312;2022-11-24T05:21:03;98111.97;;;10.74;73.38
27144;BME280;14672;50.250;8.312;2022-11-24T05:23:29;98113.22;;;10.73;72.93
27144;BME280;14672;50.250;8.312;2022-11-24T05:26:00;98120.00;;;10.75;72.87
27144;BME280;14672;50.250;8.312;2022-11-24T05:28:27;98126.38;;;10.61;73.92
27144;BME280;14672;50.250;8.312;2022-11-24T05:30:53;98121.16;;;10.60;73.38
27144;BME280;14672;50.250;8.312;2022-11-24T05:33:19;98129.03;;;10.65;73.40
27144;BME280;14672;50.250;8.312;2022-11-24T05:35:48;98137.38;;;10.68;73.23
27144;BME280;14672;50.250;8.312;2022-11-24T05:38:16;98131.53;;;10.72;73.46
27144;BME280;14672;50.250;8.312;2022-11-24T05:40:42;98141.66;;;10.64;73.16
27144;BME280;14672;50.250;8.312;2022-11-24T05:43:14;98145.44;;;10.61;73.50
27144;BME280;14672;50.250;8.312;2022-11-24T05:45:41;98145.28;;;10.64;73.29
27144;BME280;14672;50.250;8.312;2022-11-24T05:48:12;98140.41;;;10.56;74.49
27144;BME280;14672;50.250;8.312;2022-11-24T05:50:39;98143.75;;;10.45;74.51
27144;BME280;14672;50.250;8.312;2022-11-24T05:53:11;98147.50;;;10.60;73.93
27144;BME280;14672;50.250;8.312;2022-11-24T05:55:39;98146.09;;;10.56;74.26
27144;BME280;14672;50.250;8.312;2022-11-24T05:58:07;98146.41;;;10.58;74.05
27144;BME280;14672;50.250;8.312;2022-11-24T06:00:35;98135.34;;;10.60;74.31
27144;BME280;14672;50.250;8.312;2022-11-24T06:03:01;98140.75;;;10.49;74.35
27144;BME280;14672;50.250;8.312;2022-11-24T06:05:28;98147.00;;;10.71;73.70
27144;BME280;14672;50.250;8.312;2022-11-24T06:07:54;98145.09;;;10.77;73.17
27144;BME280;14672;50.250;8.312;2022-11-24T06:10:22;98138.84;;;10.55;74.33
27144;BME280;14672;50.250;8.312;2022-11-24T06:12:51;98153.16;;;10.78;73.15
27144;BME280;14672;50.250;8.312;2022-11-24T06:15:17;98153.28;;;10.75;73.44
27144;BME280;14672;50.250;8.312;2022-11-24T06:17:43;98157.25;;;10.77;73.21
27144;BME280;14672;50.250;8.312;2022-11-24T06:20:10;98155.66;;;10.76;73.37
27144;BME280;14672;50.250;8.312;2022-11-24T06:22:36;98150.13;;;10.82;73.98
27144;BME280;14672;50.250;8.312;2022-11-24T06:25:03;98164.09;;;11.04;74.33
27144;BME280;14672;50.250;8.312;2022-11-24T06:27:29;98154.41;;;11.19;74.58
27144;BME280;14672;50.250;8.312;2022-11-24T06:29:54;98164.31;;;11.33;73.06
27144;BME280;14672;50.250;8.312;2022-11-24T06:32:20;98153.63;;;11.52;73.01
27144;BME280;14672;50.250;8.312;2022-11-24T06:34:46;98160.16;;;11.67;71.83
27144;BME280;14672;50.250;8.312;2022-11-24T06:37:12;98164.91;;;11.70;71.25
27144;BME280;14672;50.250;8.312;2022-11-24T06:39:38;98160.09;;;11.85;70.32
27144;BME280;14672;50.250;8.312;2022-11-24T06:42:04;98160.09;;;11.85;70.35
27144;BME280;14672;50.250;8.312;2022-11-24T06:44:29;98157.34;;;11.91;69.83
27144;BME280;14672;50.250;8.312;2022-11-24T06:46:55;98157.72;;;11.84;69.71
27144;BME280;14672;50.250;8.312;2022-11-24T06:49:21;98165.34;;;12.01;69.64
27144;BME280;14672;50.250;8.312;2022-11-24T06:51:47;98174.59;;;11.87;69.02
27144;BME280;14672;50.250;8.312;2022-11-24T06:54:17;98165.34;;;11.77;69.99
27144;BME280;14672;50.250;8.312;2022-11-24T06:56:45;98183.69;;;11.67;69.76
27144;BME280;14672;50.250;8.312;2022-11-24T06:59:18;98176.75;;;11.77;70.14
27144;BME280;14672;50.250;8.312;2022-11-24T07:01:44;98174.00;;;11.83;69.97
27144;BME280;14672;50.250;8.312;2022-11-24T07:04:12;98180.28;;;11.87;69.55
27144;BME280;14672;50.250;8.312;2022-11-24T07:06:38;98178.00;;;11.67;70.24
27144;BME280;14672;50.250;8.312;2022-11-24T07:09:10;98187.06;;;11.66;70.83
27144;BME280;14672;50.250;8.312;2022-11-24T07:11:36;98186.44;;;11.62;70.44
27144;BME280;14672;50.250;8.312;2022-11-24T07:14:03;98189.22;;;11.71;70.47
27144;BME280;14672;50.250;8.312;2022-11-24T07:16:30;98185.19;;;11.87;69.75
27144;BME280;14672;50.250;8.312;2022-11-24T07:18:56;98198.09;;;11.73;69.89
27144;BME280;14672;50.250;8.312;2022-11-24T07:21:24;98208.16;;;11.83;69.72
27144;BME280;14672;50.250;8.312;2022-11-24T07:23:53;98200.59;;;11.71;70.05
27144;BME280;14672;50.250;8.312;2022-11-24T07:26:19;98199.91;;;11.52;70.55
27144;BME280;14672;50.250;8.312;2022-11-24T07:28:45;98199.50;;;11.68;70.28
27144;BME280;14672;50.250;8.312;2022-11-24T07:31:14;98204.44;;;11.59;70.56
27144;BME280;14672;50.250;8.312;2022-11-24T07:33:41;98206.66;;;11.64;70.31
27144;BME280;14672;50.250;8.312;2022-11-24T07:36:08;98204.31;;;11.62;70.56
27144;BME280;14672;50.250;8.312;2022-11-24T07:38:34;98214.22;;;11.67;70.38
27144;BME280;14672;50.250;8.312;2022-11-24T07:41:01;98211.72;;;11.60;70.11
27144;BME280;14672;50.250;8.312;2022-11-24T07:43:29;98213.31;;;11.61;70.64
27144;BME280;14672;50.250;8.312;2022-11-24T07:45:55;98221.19;;;11.66;70.55
27144;BME280;14672;50.250;8.312;2022-11-24T07:48:21;98224.97;;;11.63;69.99
27144;BME280;14672;50.250;8.312;2022-11-24T07:50:47;98229.41;;;11.64;70.42
27144;BME280;14672;50.250;8.312;2022-11-24T07:53:13;98229.06;;;11.71;70.18
27144;BME280;14672;50.250;8.312;2022-11-24T07:55:40;98246.94;;;11.71;69.73
27144;BME280;14672;50.250;8.312;2022-11-24T07:58:05;98239.81;;;11.67;70.21
27144;BME280;14672;50.250;8.312;2022-11-24T08:00:31;98252.16;;;11.73;70.20
27144;BME280;14672;50.250;8.312;2022-11-24T08:02:57;98246.47;;;11.73;70.00
27144;BME280;14672;50.250;8.312;2022-11-24T08:05:22;98253.44;;;11.72;70.15
27144;BME280;14672;50.250;8.312;2022-11-24T08:07:48;98266.03;;;11.71;70.21
27144;BME280;14672;50.250;8.312;2022-11-24T08:10:14;98265.13;;;11.74;70.21
27144;BME280;14672;50.250;8.312;2022-11-24T08:12:40;98265.59;;;11.72;70.35
27144;BME280;14672;50.250;8.312;2022-11-24T08:15:07;98271.28;;;11.72;70.45
27144;BME280;14672;50.250;8.312;2022-11-24T08:17:33;98271.28;;;11.72;70.18
27144;BME280;14672;50.250;8.312;2022-11-24T08:19:59;98272.59;;;11.62;70.82
27144;BME280;14672;50.250;8.312;2022-11-24T08:22:25;98278.75;;;11.61;71.00
27144;BME280;14672;50.250;8.312;2022-11-24T08:24:50;98277.91;;;11.69;70.81
27144;BME280;14672;50.250;8.312;2022-11-24T08:27:17;98280.63;;;11.64;70.51
27144;BME280;14672;50.250;8.312;2022-11-24T08:29:44;98280.25;;;11.71;70.42
27144;BME280;14672;50.250;8.312;2022-11-24T08:32:10;98277.66;;;11.58;70.83
27144;BME280;14672;50.250;8.312;2022-11-24T08:34:37;98281.25;;;11.59;71.11
27144;BME280;14672;50.250;8.312;2022-11-24T08:37:05;98281.88;;;11.72;70.11
27144;BME280;14672;50.250;8.312;2022-11-24T08:39:32;98284.25;;;11.73;70.01
27144;BME280;14672;50.250;8.312;2022-11-24T08:41:59;98281.69;;;11.66;69.54
27144;BME280;14672;50.250;8.312;2022-11-24T08:44:25;98298.41;;;11.83;69.41
27144;BME280;14672;50.250;8.312;2022-11-24T08:46:53;98292.47;;;11.71;68.72
27144;BME280;14672;50.250;8.312;2022-11-24T08:49:19;98297.66;;;11.82;68.51
27144;BME280;14672;50.250;8.312;2022-11-24T08:51:46;98308.63;;;11.98;68.29
27144;BME280;14672;50.250;8.312;2022-11-24T08:54:13;98311.66;;;11.95;67.71
27144;BME280;14672;50.250;8.312;2022-11-24T08:56:40;98315.09;;;11.99;67.99
27144;BME280;14672;50.250;8.312;2022-11-24T08:59:07;98316.91;;;11.87;68.02
27144;BME280;14672;50.250;8.312;2022-11-24T09:01:32;98318.63;;;11.94;67.74
27144;BME280;14672;50.250;8.312;2022-11-24T09:03:58;98321.31;;;11.97;68.04
27144;BME280;14672;50.250;8.312;2022-11-24T09:06:27;98323.53;;;11.93;67.51
27144;BME280;14672;50.250;8.312;2022-11-24T09:08:56;98322.72;;;12.02;67.43
27144;BME280;14672;50.250;8.312;2022-11-24T09:11:24;98328.84;;;12.09;67.00
27144;BME280;14672;50.250;8.312;2022-11-24T09:13:50;98330.56;;;12.07;67.17
27144;BME280;14672;50.250;8.312;2022-11-24T09:16:22;98331.69;;;12.09;66.79
27144;BME280;14672;50.250;8.312;2022-11-24T09:18:59;98322.81;;;11.74;66.98
27144;BME280;14672;50.250;8.312;2022-11-24T09:21:25;98339.78;;;12.02;66.95
27144;BME280;14672;50.250;8.312;2022-11-24T09:23:53;98330.25;;;12.14;66.28
27144;BME280;14672;50.250;8.312;2022-11-24T09:26:23;98334.13;;;12.26;66.63
27144;BME280;14672;50.250;8.312;2022-11-24T09:28:51;98338.94;;;12.34;66.02
27144;BME280;14672;50.250;8.312;2022-11-24T09:31:20;98331.47;;;12.46;65.20
27144;BME280;14672;50.250;8.312;2022-11-24T09:33:46;98336.47;;;12.51;64.85
27144;BME280;14672;50.250;8.312;2022-11-24T09:36:13;98337.16;;;12.69;65.16
27144;BME280;14672;50.250;8.312;2022-11-24T09:38:40;98340.94;;;12.90;65.22
27144;BME280;14672;50.250;8.312;2022-11-24T09:44:53;98343.63;;;12.70;64.39
27144;BME280;14672;50.250;8.312;2022-11-24T09:50:22;98362.13;;;12.75;63.80
27144;BME280;14672;50.250;8.312;2022-11-24T10:00:40;98364.44;;;12.85;62.52
27144;BME280;14672;50.250;8.312;2022-11-24T10:03:19;98369.63;;;12.87;62.82
27144;BME280;14672;50.250;8.312;2022-11-24T10:05:49;98376.72;;;12.91;62.95
27144;BME280;14672;50.250;8.312;2022-11-24T10:10:59;98385.00;;;12.89;62.71
27144;BME280;14672;50.250;8.312;2022-11-24T10:16:49;98380.84;;;12.90;62.15
27144;BME280;14672;50.250;8.312;2022-11-24T10:19:47;98390.00;;;12.94;62.03
27144;BME280;14672;50.250;8.312;2022-11-24T10:25:11;98397.13;;;12.75;62.70
27144;BME280;14672;50.250;8.312;2022-11-24T10:28:04;98406.78;;;12.78;61.49
27144;BME280;14672;50.250;8.312;2022-11-24T10:30:33;98407.47;;;12.87;61.31
27144;BME280;14672;50.250;8.312;2022-11-24T10:33:17;98402.22;;;12.71;61.35
27144;BME280;14672;50.250;8.312;2022-11-24T10:35:54;98409.91;;;12.80;60.87
27144;BME280;14672;50.250;8.312;2022-11-24T10:38:30;98412.72;;;12.65;61.36
27144;BME280;14672;50.250;8.312;2022-11-24T10:41:19;98410.72;;;12.80;60.97
27144;BME280;14672;50.250;8.312;2022-11-24T10:43:48;98406.50;;;12.90;60.46
27144;BME280;14672;50.250;8.312;2022-11-24T10:46:26;98399.53;;;12.91;60.27
27144;BME280;14672;50.250;8.312;2022-11-24T10:48:59;98404.31;;;13.09;59.95
27144;BME280;14672;50.250;8.312;2022-11-24T10:54:22;98392.34;;;13.73;58.02
27144;BME280;14672;50.250;8.312;2022-11-24T10:56:51;98404.13;;;14.09;57.40
27144;BME280;14672;50.250;8.312;2022-11-24T11:01:50;98406.50;;;14.11;57.15
27144;BME280;14672;50.250;8.312;2022-11-24T11:04:26;98407.22;;;13.91;56.50
27144;BME280;14672;50.250;8.312;2022-11-24T11:07:23;98406.78;;;14.28;56.03
27144;BME280;14672;50.250;8.312;2022-11-24T11:09:50;98407.56;;;14.13;55.85
27144;BME280;14672;50.250;8.312;2022-11-24T11:12:35;98412.28;;;14.31;55.19
27144;BME280;14672;50.250;8.312;2022-11-24T11:15:26;98421.06;;;14.28;55.35
27144;BME280;14672;50.250;8.312;2022-11-24T11:18:00;98411.91;;;14.24;55.92
27144;BME280;14672;50.250;8.312;2022-11-24T11:20:29;98415.94;;;14.32;55.91
27144;BME280;14672;50.250;8.312;2022-11-24T11:22:58;98414.47;;;14.22;55.61
27144;BME280;14672;50.250;8.312;2022-11-24T11:25:32;98418.81;;;14.17;55.52
27144;BME280;14672;50.250;8.312;2022-11-24T11:30:40;98421.75;;;14.23;55.90
27144;BME280;14672;50.250;8.312;2022-11-24T11:33:29;98438.03;;;14.17;55.93
27144;BME280;14672;50.250;8.312;2022-11-24T11:35:56;98434.38;;;13.87;55.80
27144;BME280;14672;50.250;8.312;2022-11-24T11:38:24;98442.34;;;13.97;55.98
27144;BME280;14672;50.250;8.312;2022-11-24T11:40:51;98436.94;;;13.99;55.98
27144;BME280;14672;50.250;8.312;2022-11-24T11:43:29;98438.41;;;13.95;55.54
27144;BME280;14672;50.250;8.312;2022-11-24T11:46:12;98437.75;;;13.85;55.40
27144;BME280;14672;50.250;8.312;2022-11-24T11:48:43;98437.16;;;13.81;55.49
27144;BME280;14672;50.250;8.312;2022-11-24T11:57:39;98446.56;;;13.58;55.90
27144;BME280;14672;50.250;8.312;2022-11-24T12:00:14;98460.16;;;13.63;55.56
27144;BME280;14672;50.250;8.312;2022-11-24T12:05:50;98462.13;;;13.57;55.65
27144;BME280;14672;50.250;8.312;2022-11-24T12:12:13;98447.25;;;13.53;55.18
27144;BME280;14672;50.250;8.312;2022-11-24T12:15:28;98460.22;;;13.54;55.38
27144;BME280;14672;50.250;8.312;2022-11-24T12:21:18;98457.94;;;13.43;55.69
27144;BME280;14672;50.250;8.312;2022-11-24T12:43:39;98464.91;;;14.25;53.90
27144;BME280;14672;50.250;8.312;2022-11-24T12:46:46;98464.63;;;14.37;54.10
27144;BME280;14672;50.250;8.312;2022-11-24T12:52:32;98470.16;;;14.41;53.38
27144;BME280;14672;50.250;8.312;2022-11-24T12:55:00;98475.94;;;14.46;53.40
27144;BME280;14672;50.250;8.312;2022-11-24T13:00:22;98474.56;;;14.56;53.19
27144;BME280;14672;50.250;8.312;2022-11-24T13:03:18;98469.59;;;14.72;53.14
27144;BME280;14672;50.250;8.312;2022-11-24T13:06:02;98476.31;;;14.69;52.18
27144;BME280;14672;50.250;8.312;2022-11-24T13:08:31;98470.19;;;14.76;51.24
27144;BME280;14672;50.250;8.312;2022-11-24T13:14:16;98466.16;;;15.43;49.23
27144;BME280;14672;50.250;8.312;2022-11-24T13:16:59;98471.19;;;15.94;48.27
27144;BME280;14672;50.250;8.312;2022-11-24T13:19:33;98468.34;;;16.25;47.82
27144;BME280;14672;50.250;8.312;2022-11-24T13:24:33;98477.41;;;16.75;46.21
27144;BME280;14672;50.250;8.312;2022-11-24T13:29:47;98492.06;;;16.83;45.61
27144;BME280;14672;50.250;8.312;2022-11-24T13:53:40;98492.84;;;17.79;44.18
27144;BME280;14672;50.250;8.312;2022-11-24T13:56:20;98488.03;;;17.54;45.25
27144;BME280;14672;50.250;8.312;2022-11-24T13:59:22;98489.41;;;17.59;44.67
27144;BME280;14672;50.250;8.312;2022-11-24T14:01:56;98492.97;;;17.48;44.16
27144;BME280;14672;50.250;8.312;2022-11-24T14:04:25;98492.72;;;17.52;44.39
27144;BME280;14672;50.250;8.312;2022-11-24T14:09:45;98497.31;;;17.27;45.16
27144;BME280;14672;50.250;8.312;2022-11-24T14:14:47;98501.22;;;16.56;45.56
27144;BME280;14672;50.250;8.312;2022-11-24T14:17:27;98511.13;;;16.29;46.35
27144;BME280;14672;50.250;8.312;2022-11-24T14:19:55;98509.91;;;16.10;47.06
27144;BME280;14672;50.250;8.312;2022-11-24T14:22:38;98517.81;;;16.20;46.62
27144;BME280;14672;50.250;8.312;2022-11-24T14:25:05;98508.50;;;16.00;46.83
27144;BME280;14672;50.250;8.312;2022-11-24T14:27:44;98505.78;;;15.90;46.93
27144;BME280;14672;50.250;8.312;2022-11-24T14:32:38;98503.84;;;15.56;47.15
27144;BME280;14672;50.250;8.312;2022-11-24T14:35:23;98505.38;;;15.57;47.51
27144;BME280;14672;50.250;8.312;2022-11-24T14:37:49;98506.81;;;15.47;47.30
27144;BME280;14672;50.250;8.312;2022-11-24T14:40:42;98508.78;;;15.41;48.13
27144;BME280;14672;50.250;8.312;2022-11-24T14:43:31;98505.28;;;15.31;48.12
27144;BME280;14672;50.250;8.312;2022-11-24T14:46:08;98505.72;;;15.24;48.55
27144;BME280;14672;50.250;8.312;2022-11-24T14:48:49;98506.34;;;15.14;48.28
27144;BME280;14672;50.250;8.312;2022-11-24T14:51:23;98516.19;;;14.92;49.24
27144;BME280;14672;50.250;8.312;2022-11-24T14:53:56;98521.72;;;14.81;49.52
27144;BME280;14672;50.250;8.312;2022-11-24T14:56:27;98519.06;;;14.78;49.47
27144;BME280;14672;50.250;8.312;2022-11-24T14:58:55;98514.59;;;14.56;50.44
27144;BME280;14672;50.250;8.312;2022-11-24T15:04:17;98527.84;;;14.30;51.21
27144;BME280;14672;50.250;8.312;2022-11-24T15:06:59;98533.09;;;14.32;51.40
27144;BME280;14672;50.250;8.312;2022-11-24T15:09:36;98529.13;;;14.15;51.84
27144;BME280;14672;50.250;8.312;2022-11-24T15:12:39;98537.97;;;13.87;53.00
27144;BME280;14672;50.250;8.312;2022-11-24T15:15:18;98543.69;;;13.87;52.86
27144;BME280;14672;50.250;8.312;2022-11-24T15:17:55;98546.91;;;13.80;53.03